Edward Cornwallis — CGJV — position and weather

sailwx.info

Track history (hours):
 
Tides and Currents Weather Stations Pressure Air Temp Water Temp Dewpoint Dewpoint Depression Visibility Wind Speed Wind Dir Waves Ship Positions

Edward Cornwallis

Last reported at 2014-Jul-27 21:14 UTC. Time now 2014-Jul-28 16:32 UTC.
Position N 47°13' W 052°37'.

Length 83 m; draft 6 m.

Type: SAR. MMSI: 316020000.

Date/timePositionNaut miles runAvg speedWind from/ knotsBaromVisibWave heightAir tempDewpointWater temp
2014-Jul-27 21:14N 47°13' W 052°37'914.0
2014-Jul-27 20:33N 47°22' W 052°35'10 9.8
2014-Jul-27 19:30N 47°32' W 052°36'3 3.3
2014-Jul-27 18:31N 47°34' W 052°40'2 0.8
2014-Jul-27 16:25N 47°33' W 052°42'0 0.0
2014-Jul-27 15:31N 47°33' W 052°42'0 0.0
2014-Jul-27 14:28N 47°33' W 052°42'0 0.0
2014-Jul-27 13:28N 47°33' W 052°42'0 0.0
2014-Jul-27 12:28N 47°33' W 052°42'0 0.0
2014-Jul-27 11:31N 47°33' W 052°42'0 0.0
2014-Jul-27 10:31N 47°33' W 052°42'0 0.0
2014-Jul-27 09:31N 47°33' W 052°42'0 0.0
2014-Jul-27 08:31N 47°33' W 052°42'0 0.0
2014-Jul-27 07:31N 47°33' W 052°42'0 0.0
2014-Jul-27 06:25N 47°33' W 052°42'0 0.0
2014-Jul-27 05:31N 47°33' W 052°42'0 0.0
2014-Jul-27 04:28N 47°33' W 052°42'0 0.0
2014-Jul-27 03:31N 47°33' W 052°42'0 0.0
2014-Jul-27 02:28N 47°33' W 052°42'0 0.0
2014-Jul-27 01:28N 47°33' W 052°42'0 0.0
2014-Jul-27 00:31N 47°33' W 052°42'0 0.0
2014-Jul-26 23:31N 47°33' W 052°42'0 0.0
2014-Jul-26 22:31N 47°33' W 052°42'0 0.0
2014-Jul-26 21:25N 47°33' W 052°42'0 0.0
2014-Jul-26 20:31N 47°33' W 052°42'0 0.0
2014-Jul-26 19:31N 47°33' W 052°42'0 0.0
2014-Jul-26 18:31N 47°33' W 052°42'0 0.0
2014-Jul-26 17:31N 47°33' W 052°42'0 0.0
2014-Jul-26 16:31N 47°33' W 052°42'3 3.2
2014-Jul-26 15:30N 47°35' W 052°38'  
2014-Jul-22 16:30N 47°42' W 052°35'10 9.4
2014-Jul-22 15:29N 47°33' W 052°42'0 0.0
2014-Jul-22 14:32N 47°33' W 052°42'0 0.0
2014-Jul-22 13:23N 47°33' W 052°42'0 0.0
2014-Jul-22 12:29N 47°33' W 052°42'0 0.0
2014-Jul-22 11:29N 47°33' W 052°42'0 0.0
2014-Jul-22 10:32N 47°33' W 052°42'0 0.0
2014-Jul-22 09:32N 47°33' W 052°42'0 0.0
2014-Jul-22 08:26N 47°33' W 052°42'0 0.0
2014-Jul-22 07:29N 47°33' W 052°42'0 0.0
2014-Jul-22 06:29N 47°33' W 052°42'0 0.0
2014-Jul-22 05:29N 47°33' W 052°42'0 0.0
2014-Jul-22 04:32N 47°33' W 052°42'0 0.0
2014-Jul-22 03:29N 47°33' W 052°42'5 5.3
2014-Jul-22 02:31N 47°36' W 052°36'5 1.0
2014-Jul-21 21:30N 47°41' W 052°35'9 9.0
2014-Jul-21 20:29N 47°33' W 052°42'0 0.0
2014-Jul-21 20:13N 47°33' W 052°42'0 0.0
2014-Jul-21 18:31N 47°33' W 052°42'0 0.0
2014-Jul-21 17:19N 47°33' W 052°42'0 0.0
2014-Jul-21 16:31N 47°33' W 052°42'0 0.0
2014-Jul-21 15:31N 47°33' W 052°42'0 0.0
2014-Jul-21 14:13N 47°33' W 052°42'0 0.0
2014-Jul-21 13:31N 47°33' W 052°42'0 0.0
2014-Jul-21 12:31N 47°33' W 052°42'0 0.0
2014-Jul-21 11:31N 47°33' W 052°42'0 0.0
2014-Jul-21 10:25N 47°33' W 052°42'0 0.2
2014-Jul-21 09:33N 47°34' W 052°42'6 6.0
2014-Jul-21 08:30N 47°30' W 052°35'10 9.8
2014-Jul-21 07:28N 47°20' W 052°35'  
Track history (hours):
 
Tides and Currents Weather Stations Pressure Air Temp Water Temp Dewpoint Dewpoint Depression Visibility Wind Speed Wind Dir Waves Ship Positions

Edward Cornwallis

Last reported at 2014-Jul-27 21:14 UTC. Time now 2014-Jul-28 16:32 UTC.
Position N 47°13' W 052°37'.

Length 83 m; draft 6 m.

Type: SAR. MMSI: 316020000.

Date/timePositionNaut miles runAvg speedWind from/ knotsBaromVisibWave heightAir tempDewpointWater temp
2014-Jul-27 21:14N 47°13' W 052°37'914.0
2014-Jul-27 20:33N 47°22' W 052°35'10 9.8
2014-Jul-27 19:30N 47°32' W 052°36'3 3.3
2014-Jul-27 18:31N 47°34' W 052°40'2 0.8
2014-Jul-27 16:25N 47°33' W 052°42'0 0.0
2014-Jul-27 15:31N 47°33' W 052°42'0 0.0
2014-Jul-27 14:28N 47°33' W 052°42'0 0.0
2014-Jul-27 13:28N 47°33' W 052°42'0 0.0
2014-Jul-27 12:28N 47°33' W 052°42'0 0.0
2014-Jul-27 11:31N 47°33' W 052°42'0 0.0
2014-Jul-27 10:31N 47°33' W 052°42'0 0.0
2014-Jul-27 09:31N 47°33' W 052°42'0 0.0
2014-Jul-27 08:31N 47°33' W 052°42'0 0.0
2014-Jul-27 07:31N 47°33' W 052°42'0 0.0
2014-Jul-27 06:25N 47°33' W 052°42'0 0.0
2014-Jul-27 05:31N 47°33' W 052°42'0 0.0
2014-Jul-27 04:28N 47°33' W 052°42'0 0.0
2014-Jul-27 03:31N 47°33' W 052°42'0 0.0
2014-Jul-27 02:28N 47°33' W 052°42'0 0.0
2014-Jul-27 01:28N 47°33' W 052°42'0 0.0
2014-Jul-27 00:31N 47°33' W 052°42'0 0.0
2014-Jul-26 23:31N 47°33' W 052°42'0 0.0
2014-Jul-26 22:31N 47°33' W 052°42'0 0.0
2014-Jul-26 21:25N 47°33' W 052°42'0 0.0
2014-Jul-26 20:31N 47°33' W 052°42'0 0.0
2014-Jul-26 19:31N 47°33' W 052°42'0 0.0
2014-Jul-26 18:31N 47°33' W 052°42'0 0.0
2014-Jul-26 17:31N 47°33' W 052°42'0 0.0
2014-Jul-26 16:31N 47°33' W 052°42'3 3.2
2014-Jul-26 15:30N 47°35' W 052°38'  
2014-Jul-22 16:30N 47°42' W 052°35'10 9.4
2014-Jul-22 15:29N 47°33' W 052°42'0 0.0
2014-Jul-22 14:32N 47°33' W 052°42'0 0.0
2014-Jul-22 13:23N 47°33' W 052°42'0 0.0
2014-Jul-22 12:29N 47°33' W 052°42'0 0.0
2014-Jul-22 11:29N 47°33' W 052°42'0 0.0
2014-Jul-22 10:32N 47°33' W 052°42'0 0.0
2014-Jul-22 09:32N 47°33' W 052°42'0 0.0
2014-Jul-22 08:26N 47°33' W 052°42'0 0.0
2014-Jul-22 07:29N 47°33' W 052°42'0 0.0
2014-Jul-22 06:29N 47°33' W 052°42'0 0.0
2014-Jul-22 05:29N 47°33' W 052°42'0 0.0
2014-Jul-22 04:32N 47°33' W 052°42'0 0.0
2014-Jul-22 03:29N 47°33' W 052°42'5 5.3
2014-Jul-22 02:31N 47°36' W 052°36'5 1.0
2014-Jul-21 21:30N 47°41' W 052°35'9 9.0
2014-Jul-21 20:29N 47°33' W 052°42'0 0.0
2014-Jul-21 20:13N 47°33' W 052°42'0 0.0
2014-Jul-21 18:31N 47°33' W 052°42'0 0.0
2014-Jul-21 17:19N 47°33' W 052°42'0 0.0
2014-Jul-21 16:31N 47°33' W 052°42'0 0.0
2014-Jul-21 15:31N 47°33' W 052°42'0 0.0
2014-Jul-21 14:13N 47°33' W 052°42'0 0.0
2014-Jul-21 13:31N 47°33' W 052°42'0 0.0
2014-Jul-21 12:31N 47°33' W 052°42'0 0.0
2014-Jul-21 11:31N 47°33' W 052°42'0 0.0
2014-Jul-21 10:25N 47°33' W 052°42'0 0.2
2014-Jul-21 09:33N 47°34' W 052°42'6 6.0
2014-Jul-21 08:30N 47°30' W 052°35'10 9.8
2014-Jul-21 07:28N 47°20' W 052°35'  

Dump ship's entire track history